PWSweather.com
Personal Weather Stations
Station Observations
KCAOCEAN4
Jeffries Ranch, Oceanside, CA 92057

Jeffries RanchOceanside, CA 92057

Lat: 33.2463208, Lon: -117.25335080000002

Elevation: 207

Station Type: Davis Vantage Vue

jeffriesranchweather.com

High Low Average
Temperature 63.1°F17.3°C 38.5°F3.6°C 52.5°F11.4°C
Dew Point 52.3°F11.3°C 36.9°F2.7°C 45.8°F7.7°C
Winds 6.9 mph 11.1 kmh Calm Calm 2.0 mph SSE3.2 kmh SSE
Wind Gusts 14.1 mph22.7 kmh -- 6.0 mph9.7 kmh
Humidity 94% 57% 79%
Pressure 30.11 in1019.6 mb 30.01 in1016.3 mb -
Precipitation 0.06 in1.5 mm - -
Hour Temp Dew Point Humidity Winds Wind Gusts Pressure Precip Precip Rate Daily Precip Total
12:03 AM 45.0°F7.2°C 42.3°F5.7°C 90% Calm Calm 3.0 mph4.8 kmh 30.11 in1019.6 mb 0.00 in0.0 mm 0.00 in0.0 mm 0.00 in0.0 mm
12:13 AM 44.6°F7.0°C 42.1°F5.6°C 91% 0.9 mph NE1.4 kmh NE 2.9 mph4.7 kmh 30.11 in1019.6 mb 0.00 in0.0 mm 0.00 in0.0 mm 0.00 in0.0 mm
12:23 AM 44.6°F7.0°C 42.1°F5.6°C 91% 0.9 mph ENE1.4 kmh ENE 2.9 mph4.7 kmh 30.11 in1019.6 mb 0.00 in0.0 mm 0.00 in0.0 mm 0.00 in0.0 mm
12:33 AM 44.2°F6.8°C 41.7°F5.4°C 91% 0.9 mph NE1.4 kmh NE 3.0 mph4.8 kmh 30.10 in1019.3 mb 0.00 in0.0 mm 0.00 in0.0 mm 0.00 in0.0 mm
12:43 AM 44.1°F6.7°C 41.5°F5.3°C 91% 0.9 mph ENE1.4 kmh ENE 2.9 mph4.7 kmh 30.10 in1019.3 mb 0.00 in0.0 mm 0.00 in0.0 mm 0.00 in0.0 mm
12:53 AM 43.9°F6.6°C 41.4°F5.2°C 91% 0.9 mph NNE1.4 kmh NNE 4.9 mph7.9 kmh 30.10 in1019.3 mb 0.00 in0.0 mm 0.00 in0.0 mm 0.00 in0.0 mm
01:03 AM 43.5°F6.4°C 41.4°F5.2°C 92% Calm Calm 3.0 mph4.8 kmh 30.10 in1019.3 mb 0.00 in0.0 mm 0.00 in0.0 mm 0.00 in0.0 mm
01:13 AM 43.3°F6.3°C 41.2°F5.1°C 92% 0.9 mph ENE1.4 kmh ENE 2.9 mph4.7 kmh 30.10 in1019.3 mb 0.00 in0.0 mm 0.00 in0.0 mm 0.00 in0.0 mm
01:23 AM 43.2°F6.2°C 41.0°F5.0°C 92% 0.9 mph NE1.4 kmh NE 2.9 mph4.7 kmh 30.10 in1019.3 mb 0.00 in0.0 mm 0.00 in0.0 mm 0.00 in0.0 mm
01:33 AM 43.2°F6.2°C 41.0°F5.0°C 92% 0.9 mph NE1.4 kmh NE 2.9 mph4.7 kmh 30.10 in1019.3 mb 0.00 in0.0 mm 0.00 in0.0 mm 0.00 in0.0 mm
01:43 AM 43.2°F6.2°C 41.0°F5.0°C 92% 0.9 mph E1.4 kmh E 4.0 mph6.4 kmh 30.11 in1019.6 mb 0.00 in0.0 mm 0.00 in0.0 mm 0.00 in0.0 mm
01:53 AM 43.0°F6.1°C 40.8°F4.9°C 92% 2.0 mph E3.2 kmh E 4.0 mph6.4 kmh 30.11 in1019.6 mb 0.00 in0.0 mm 0.00 in0.0 mm 0.00 in0.0 mm
02:03 AM 42.3°F5.7°C 40.1°F4.5°C 92% Calm Calm 2.9 mph4.7 kmh 30.11 in1019.6 mb 0.00 in0.0 mm 0.00 in0.0 mm 0.00 in0.0 mm
02:13 AM 42.1°F5.6°C 39.9°F4.4°C 92% Calm Calm 2.0 mph3.2 kmh 30.11 in1019.6 mb 0.00 in0.0 mm 0.00 in0.0 mm 0.00 in0.0 mm
02:23 AM 41.7°F5.4°C 39.9°F4.4°C 93% 0.9 mph E1.4 kmh E 4.0 mph6.4 kmh 30.11 in1019.6 mb 0.00 in0.0 mm 0.00 in0.0 mm 0.00 in0.0 mm
02:33 AM 41.5°F5.3°C 39.4°F4.1°C 92% 0.9 mph E1.4 kmh E 4.0 mph6.4 kmh 30.10 in1019.3 mb 0.00 in0.0 mm 0.00 in0.0 mm 0.00 in0.0 mm
02:43 AM 41.4°F5.2°C 39.6°F4.2°C 93% 0.9 mph E1.4 kmh E 2.0 mph3.2 kmh 30.10 in1019.3 mb 0.00 in0.0 mm 0.00 in0.0 mm 0.00 in0.0 mm
02:53 AM 41.4°F5.2°C 39.6°F4.2°C 93% 0.9 mph ENE1.4 kmh ENE 2.9 mph4.7 kmh 30.10 in1019.3 mb 0.00 in0.0 mm 0.00 in0.0 mm 0.00 in0.0 mm
03:03 AM 41.0°F5.0°C 39.2°F4.0°C 93% 0.9 mph ESE1.4 kmh ESE 2.9 mph4.7 kmh 30.09 in1019.0 mb 0.00 in0.0 mm 0.00 in0.0 mm 0.00 in0.0 mm
03:13 AM 40.8°F4.9°C 39.0°F3.9°C 93% 0.9 mph ENE1.4 kmh ENE 2.0 mph3.2 kmh 30.09 in1019.0 mb 0.00 in0.0 mm 0.00 in0.0 mm 0.00 in0.0 mm
03:23 AM 40.6°F4.8°C 38.8°F3.8°C 93% 0.9 mph E1.4 kmh E 4.0 mph6.4 kmh 30.09 in1019.0 mb 0.00 in0.0 mm 0.00 in0.0 mm 0.00 in0.0 mm
03:33 AM 40.5°F4.7°C 38.7°F3.7°C 93% 0.9 mph ENE1.4 kmh ENE 2.9 mph4.7 kmh 30.09 in1019.0 mb 0.00 in0.0 mm 0.00 in0.0 mm 0.00 in0.0 mm
03:43 AM 40.5°F4.7°C 38.8°F3.8°C 94% 2.0 mph E3.2 kmh E 4.0 mph6.4 kmh 30.09 in1019.0 mb 0.00 in0.0 mm 0.00 in0.0 mm 0.00 in0.0 mm
03:53 AM 40.3°F4.6°C 38.7°F3.7°C 94% 2.0 mph E3.2 kmh E 4.0 mph6.4 kmh 30.08 in1018.6 mb 0.00 in0.0 mm 0.00 in0.0 mm 0.00 in0.0 mm
04:03 AM 40.1°F4.5°C 38.5°F3.6°C 94% 0.9 mph NE1.4 kmh NE 4.0 mph6.4 kmh 30.08 in1018.6 mb 0.00 in0.0 mm 0.00 in0.0 mm 0.00 in0.0 mm
04:13 AM 40.3°F4.6°C 38.7°F3.7°C 94% 0.9 mph E1.4 kmh E 2.9 mph4.7 kmh 30.08 in1018.6 mb 0.00 in0.0 mm 0.00 in0.0 mm 0.00 in0.0 mm
04:23 AM 40.3°F4.6°C 38.7°F3.7°C 94% 0.9 mph E1.4 kmh E 2.9 mph4.7 kmh 30.08 in1018.6 mb 0.00 in0.0 mm 0.00 in0.0 mm 0.00 in0.0 mm
04:33 AM 40.1°F4.5°C 38.5°F3.6°C 94% 0.9 mph E1.4 kmh E 4.9 mph7.9 kmh 30.08 in1018.6 mb 0.00 in0.0 mm 0.00 in0.0 mm 0.00 in0.0 mm
04:43 AM 40.3°F4.6°C 38.7°F3.7°C 94% 2.9 mph ENE4.7 kmh ENE 7.0 mph11.3 kmh 30.08 in1018.6 mb 0.00 in0.0 mm 0.00 in0.0 mm 0.00 in0.0 mm
04:53 AM 40.3°F4.6°C 38.7°F3.7°C 94% 2.9 mph ENE4.7 kmh ENE 6.0 mph9.7 kmh 30.08 in1018.6 mb 0.00 in0.0 mm 0.00 in0.0 mm 0.00 in0.0 mm
05:03 AM 40.3°F4.6°C 38.7°F3.7°C 94% 2.0 mph E3.2 kmh E 4.9 mph7.9 kmh 30.08 in1018.6 mb 0.00 in0.0 mm 0.00 in0.0 mm 0.00 in0.0 mm
05:13 AM 39.9°F4.4°C 38.3°F3.5°C 94% 2.0 mph ENE3.2 kmh ENE 5.0 mph8.0 kmh 30.08 in1018.6 mb 0.00 in0.0 mm 0.00 in0.0 mm 0.00 in0.0 mm
05:23 AM 39.7°F4.3°C 38.1°F3.4°C 94% 2.0 mph ENE3.2 kmh ENE 4.9 mph7.9 kmh 30.08 in1018.6 mb 0.00 in0.0 mm 0.00 in0.0 mm 0.00 in0.0 mm
05:33 AM 39.6°F4.2°C 37.9°F3.3°C 94% Calm Calm 2.0 mph3.2 kmh 30.08 in1018.6 mb 0.00 in0.0 mm 0.00 in0.0 mm 0.00 in0.0 mm
05:43 AM 39.4°F4.1°C 37.8°F3.2°C 94% 0.9 mph NE1.4 kmh NE 3.0 mph4.8 kmh 30.09 in1019.0 mb 0.00 in0.0 mm 0.00 in0.0 mm 0.00 in0.0 mm
05:53 AM 39.4°F4.1°C 37.8°F3.2°C 94% 0.9 mph E1.4 kmh E 2.9 mph4.7 kmh 30.09 in1019.0 mb 0.00 in0.0 mm 0.00 in0.0 mm 0.00 in0.0 mm
06:03 AM 39.4°F4.1°C 37.8°F3.2°C 94% 2.0 mph NE3.2 kmh NE 5.0 mph8.0 kmh 30.09 in1019.0 mb 0.00 in0.0 mm 0.00 in0.0 mm 0.00 in0.0 mm
06:13 AM 39.4°F4.1°C 37.8°F3.2°C 94% 0.9 mph NE1.4 kmh NE 2.9 mph4.7 kmh 30.09 in1019.0 mb 0.00 in0.0 mm 0.00 in0.0 mm 0.00 in0.0 mm
06:23 AM 39.4°F4.1°C 37.8°F3.2°C 94% 2.0 mph ENE3.2 kmh ENE 4.0 mph6.4 kmh 30.09 in1019.0 mb 0.00 in0.0 mm 0.00 in0.0 mm 0.00 in0.0 mm
06:33 AM 39.0°F3.9°C 37.4°F3.0°C 94% 0.9 mph E1.4 kmh E 4.0 mph6.4 kmh 30.09 in1019.0 mb 0.00 in0.0 mm 0.00 in0.0 mm 0.00 in0.0 mm
06:43 AM 38.8°F3.8°C 37.2°F2.9°C 94% 0.9 mph E1.4 kmh E 2.9 mph4.7 kmh 30.09 in1019.0 mb 0.00 in0.0 mm 0.00 in0.0 mm 0.00 in0.0 mm
06:53 AM 38.7°F3.7°C 37.0°F2.8°C 94% 2.0 mph E3.2 kmh E 3.0 mph4.8 kmh 30.09 in1019.0 mb 0.00 in0.0 mm 0.00 in0.0 mm 0.00 in0.0 mm
07:03 AM 38.7°F3.7°C 37.0°F2.8°C 94% 0.9 mph NE1.4 kmh NE 4.0 mph6.4 kmh 30.10 in1019.3 mb 0.00 in0.0 mm 0.00 in0.0 mm 0.00 in0.0 mm
07:13 AM 38.7°F3.7°C 37.0°F2.8°C 94% 2.0 mph ENE3.2 kmh ENE 4.0 mph6.4 kmh 30.10 in1019.3 mb 0.00 in0.0 mm 0.00 in0.0 mm 0.00 in0.0 mm
07:23 AM 38.7°F3.7°C 37.0°F2.8°C 94% 0.9 mph E1.4 kmh E 4.0 mph6.4 kmh 30.10 in1019.3 mb 0.00 in0.0 mm 0.00 in0.0 mm 0.00 in0.0 mm
07:33 AM 38.5°F3.6°C 36.9°F2.7°C 94% 2.0 mph E3.2 kmh E 4.9 mph7.9 kmh 30.10 in1019.3 mb 0.00 in0.0 mm 0.00 in0.0 mm 0.00 in0.0 mm
07:43 AM 39.0°F3.9°C 37.4°F3.0°C 94% 2.9 mph NE4.7 kmh NE 4.9 mph7.9 kmh 30.10 in1019.3 mb 0.00 in0.0 mm 0.00 in0.0 mm 0.00 in0.0 mm
07:53 AM 39.6°F4.2°C 37.9°F3.3°C 94% 2.9 mph ENE4.7 kmh ENE 6.0 mph9.7 kmh 30.10 in1019.3 mb 0.00 in0.0 mm 0.00 in0.0 mm 0.00 in0.0 mm
08:03 AM 40.3°F4.6°C 38.7°F3.7°C 94% 2.0 mph ENE3.2 kmh ENE 4.9 mph7.9 kmh 30.11 in1019.6 mb 0.00 in0.0 mm 0.00 in0.0 mm 0.00 in0.0 mm
08:13 AM 41.0°F5.0°C 39.4°F4.1°C 94% 2.0 mph E3.2 kmh E 6.0 mph9.7 kmh 30.11 in1019.6 mb 0.00 in0.0 mm 0.00 in0.0 mm 0.00 in0.0 mm
08:23 AM 41.9°F5.5°C 40.1°F4.5°C 93% 2.9 mph NE4.7 kmh NE 6.0 mph9.7 kmh 30.11 in1019.6 mb 0.00 in0.0 mm 0.00 in0.0 mm 0.00 in0.0 mm
08:33 AM 42.6°F5.9°C 40.5°F4.7°C 92% 2.9 mph ENE4.7 kmh ENE 7.0 mph11.3 kmh 30.11 in1019.6 mb 0.00 in0.0 mm 0.00 in0.0 mm 0.00 in0.0 mm
08:43 AM 43.9°F6.6°C 41.4°F5.2°C 91% 2.0 mph ENE3.2 kmh ENE 4.9 mph7.9 kmh 30.11 in1019.6 mb 0.00 in0.0 mm 0.00 in0.0 mm 0.00 in0.0 mm
08:53 AM 45.1°F7.3°C 42.4°F5.8°C 90% 0.9 mph ENE1.4 kmh ENE 4.9 mph7.9 kmh 30.11 in1019.6 mb 0.00 in0.0 mm 0.00 in0.0 mm 0.00 in0.0 mm
09:03 AM 46.0°F7.8°C 42.6°F5.9°C 88% 2.0 mph E3.2 kmh E 6.0 mph9.7 kmh 30.11 in1019.6 mb 0.00 in0.0 mm 0.00 in0.0 mm 0.00 in0.0 mm
09:13 AM 46.9°F8.3°C 42.6°F5.9°C 85% 2.9 mph NE4.7 kmh NE 8.1 mph13.0 kmh 30.11 in1019.6 mb 0.00 in0.0 mm 0.00 in0.0 mm 0.00 in0.0 mm
09:23 AM 48.2°F9.0°C 43.5°F6.4°C 84% 2.0 mph NE3.2 kmh NE 4.9 mph7.9 kmh 30.11 in1019.6 mb 0.00 in0.0 mm 0.00 in0.0 mm 0.00 in0.0 mm
09:33 AM 49.1°F9.5°C 44.2°F6.8°C 83% 2.9 mph NE4.7 kmh NE 4.9 mph7.9 kmh 30.11 in1019.6 mb 0.00 in0.0 mm 0.00 in0.0 mm 0.00 in0.0 mm
09:43 AM 50.4°F10.2°C 44.8°F7.1°C 81% 2.9 mph NE4.7 kmh NE 4.9 mph7.9 kmh 30.11 in1019.6 mb 0.00 in0.0 mm 0.00 in0.0 mm 0.00 in0.0 mm
09:53 AM 52.2°F11.2°C 45.1°F7.3°C 77% 0.9 mph E1.4 kmh E 2.9 mph4.7 kmh 30.11 in1019.6 mb 0.00 in0.0 mm 0.00 in0.0 mm 0.00 in0.0 mm
10:03 AM 53.2°F11.8°C 45.9°F7.7°C 76% 2.9 mph ENE4.7 kmh ENE 4.0 mph6.4 kmh 30.10 in1019.3 mb 0.00 in0.0 mm 0.00 in0.0 mm 0.00 in0.0 mm
10:13 AM 54.3°F12.4°C 46.2°F7.9°C 74% 0.9 mph E1.4 kmh E 4.0 mph6.4 kmh 30.11 in1019.6 mb 0.00 in0.0 mm 0.00 in0.0 mm 0.00 in0.0 mm
10:23 AM 55.8°F13.2°C 46.6°F8.1°C 71% 0.9 mph NE1.4 kmh NE 2.9 mph4.7 kmh 30.11 in1019.6 mb 0.00 in0.0 mm 0.00 in0.0 mm 0.00 in0.0 mm
10:25 AM -- -- - - N N -- -- 0.00 in0.0 mm 0.00 in0.0 mm 0.00 in0.0 mm
10:32 AM -- -- - - N N -- -- 0.00 in0.0 mm 0.00 in0.0 mm 0.00 in0.0 mm
10:33 AM 56.5°F13.6°C 44.4°F6.9°C 64% 0.9 mph WSW1.4 kmh WSW 2.0 mph3.2 kmh 30.10 in1019.3 mb 0.00 in0.0 mm 0.00 in0.0 mm 0.00 in0.0 mm
10:43 AM 57.4°F14.1°C 43.2°F6.2°C 59% 0.9 mph WNW1.4 kmh WNW 2.0 mph3.2 kmh 30.10 in1019.3 mb 0.00 in0.0 mm 0.00 in0.0 mm 0.00 in0.0 mm
10:53 AM 57.9°F14.4°C 44.6°F7.0°C 61% 2.0 mph W3.2 kmh W 4.9 mph7.9 kmh 30.10 in1019.3 mb 0.00 in0.0 mm 0.00 in0.0 mm 0.00 in0.0 mm
11:03 AM 59.0°F15.0°C 45.5°F7.5°C 61% 0.9 mph S1.4 kmh S 4.0 mph6.4 kmh 30.10 in1019.3 mb 0.00 in0.0 mm 0.00 in0.0 mm 0.00 in0.0 mm
11:13 AM 59.0°F15.0°C 46.0°F7.8°C 62% 2.0 mph WSW3.2 kmh WSW 4.9 mph7.9 kmh 30.10 in1019.3 mb 0.00 in0.0 mm 0.00 in0.0 mm 0.00 in0.0 mm
11:23 AM 59.7°F15.4°C 46.2°F7.9°C 61% 2.0 mph NW3.2 kmh NW 5.0 mph8.0 kmh 30.10 in1019.3 mb 0.00 in0.0 mm 0.00 in0.0 mm 0.00 in0.0 mm
11:33 AM 61.0°F16.1°C 47.5°F8.6°C 61% 2.0 mph SE3.2 kmh SE 4.9 mph7.9 kmh 30.09 in1019.0 mb 0.00 in0.0 mm 0.00 in0.0 mm 0.00 in0.0 mm
11:43 AM 61.3°F16.3°C 47.3°F8.5°C 60% 0.9 mph N1.4 kmh N 2.9 mph4.7 kmh 30.09 in1019.0 mb 0.00 in0.0 mm 0.00 in0.0 mm 0.00 in0.0 mm
11:53 AM 61.9°F16.6°C 47.5°F8.6°C 59% 0.9 mph SW1.4 kmh SW 5.0 mph8.0 kmh 30.09 in1019.0 mb 0.00 in0.0 mm 0.00 in0.0 mm 0.00 in0.0 mm
12:03 PM 62.6°F17.0°C 47.1°F8.4°C 57% 2.0 mph W3.2 kmh W 7.0 mph11.3 kmh 30.09 in1019.0 mb 0.00 in0.0 mm 0.00 in0.0 mm 0.00 in0.0 mm
12:13 PM 62.1°F16.7°C 47.5°F8.6°C 59% 2.9 mph NE4.7 kmh NE 6.9 mph11.1 kmh 30.08 in1018.6 mb 0.00 in0.0 mm 0.00 in0.0 mm 0.00 in0.0 mm
12:23 PM 62.6°F17.0°C 47.7°F8.7°C 58% 2.9 mph NW4.7 kmh NW 7.0 mph11.3 kmh 30.08 in1018.6 mb 0.00 in0.0 mm 0.00 in0.0 mm 0.00 in0.0 mm
12:33 PM 63.0°F17.2°C 47.5°F8.6°C 57% 2.9 mph SW4.7 kmh SW 6.0 mph9.7 kmh 30.07 in1018.3 mb 0.00 in0.0 mm 0.00 in0.0 mm 0.00 in0.0 mm
12:43 PM 63.1°F17.3°C 49.1°F9.5°C 60% 2.0 mph WNW3.2 kmh WNW 7.0 mph11.3 kmh 30.07 in1018.3 mb 0.00 in0.0 mm 0.00 in0.0 mm 0.00 in0.0 mm
12:53 PM 63.1°F17.3°C 48.2°F9.0°C 58% 2.9 mph SE4.7 kmh SE 6.9 mph11.1 kmh 30.06 in1017.9 mb 0.00 in0.0 mm 0.00 in0.0 mm 0.00 in0.0 mm
01:03 PM 63.0°F17.2°C 48.4°F9.1°C 59% 4.0 mph W6.4 kmh W 10.1 mph16.3 kmh 30.06 in1017.9 mb 0.00 in0.0 mm 0.00 in0.0 mm 0.00 in0.0 mm
01:13 PM 63.0°F17.2°C 48.9°F9.4°C 60% 4.9 mph WNW7.9 kmh WNW 11.0 mph17.7 kmh 30.05 in1017.6 mb 0.00 in0.0 mm 0.00 in0.0 mm 0.00 in0.0 mm
01:23 PM 63.0°F17.2°C 48.4°F9.1°C 59% 4.9 mph W7.9 kmh W 11.0 mph17.7 kmh 30.05 in1017.6 mb 0.00 in0.0 mm 0.00 in0.0 mm 0.00 in0.0 mm
01:33 PM 63.1°F17.3°C 48.6°F9.2°C 59% 4.9 mph WSW7.9 kmh WSW 10.1 mph16.3 kmh 30.04 in1017.3 mb 0.00 in0.0 mm 0.00 in0.0 mm 0.00 in0.0 mm
01:43 PM 62.8°F17.1°C 47.8°F8.8°C 58% 4.9 mph WSW7.9 kmh WSW 12.1 mph19.5 kmh 30.04 in1017.3 mb 0.00 in0.0 mm 0.00 in0.0 mm 0.00 in0.0 mm
01:53 PM 62.4°F16.9°C 47.5°F8.6°C 58% 6.0 mph W9.7 kmh W 14.1 mph22.7 kmh 30.03 in1016.9 mb 0.00 in0.0 mm 0.00 in0.0 mm 0.00 in0.0 mm
02:03 PM 62.6°F17.0°C 48.0°F8.9°C 59% 6.0 mph NW9.7 kmh NW 13.0 mph20.9 kmh 30.03 in1016.9 mb 0.00 in0.0 mm 0.00 in0.0 mm 0.00 in0.0 mm
02:13 PM 62.2°F16.8°C 47.7°F8.7°C 59% 6.9 mph SW11.1 kmh SW 14.1 mph22.7 kmh 30.03 in1016.9 mb 0.00 in0.0 mm 0.00 in0.0 mm 0.00 in0.0 mm
02:23 PM 62.4°F16.9°C 48.4°F9.1°C 60% 6.0 mph WNW9.7 kmh WNW 11.0 mph17.7 kmh 30.03 in1016.9 mb 0.00 in0.0 mm 0.00 in0.0 mm 0.00 in0.0 mm
02:33 PM 62.6°F17.0°C 48.6°F9.2°C 60% 6.0 mph WNW9.7 kmh WNW 11.0 mph17.7 kmh 30.03 in1016.9 mb 0.00 in0.0 mm 0.00 in0.0 mm 0.00 in0.0 mm
02:43 PM 62.2°F16.8°C 48.2°F9.0°C 60% 6.0 mph W9.7 kmh W 11.0 mph17.7 kmh 30.03 in1016.9 mb 0.00 in0.0 mm 0.00 in0.0 mm 0.00 in0.0 mm
02:53 PM 61.9°F16.6°C 47.8°F8.8°C 60% 4.9 mph W7.9 kmh W 10.1 mph16.3 kmh 30.03 in1016.9 mb 0.00 in0.0 mm 0.00 in0.0 mm 0.00 in0.0 mm
03:03 PM 61.9°F16.6°C 47.8°F8.8°C 60% 6.0 mph W9.7 kmh W 13.0 mph20.9 kmh 30.03 in1016.9 mb 0.00 in0.0 mm 0.00 in0.0 mm 0.00 in0.0 mm
03:13 PM 62.2°F16.8°C 48.6°F9.2°C 61% 4.9 mph SW7.9 kmh SW 11.0 mph17.7 kmh 30.02 in1016.6 mb 0.00 in0.0 mm 0.00 in0.0 mm 0.00 in0.0 mm
03:23 PM 62.4°F16.9°C 48.4°F9.1°C 60% 4.9 mph NW7.9 kmh NW 11.0 mph17.7 kmh 30.02 in1016.6 mb 0.00 in0.0 mm 0.00 in0.0 mm 0.00 in0.0 mm
03:33 PM 62.6°F17.0°C 48.9°F9.4°C 61% 4.9 mph W7.9 kmh W 11.0 mph17.7 kmh 30.02 in1016.6 mb 0.00 in0.0 mm 0.00 in0.0 mm 0.00 in0.0 mm
03:43 PM 62.6°F17.0°C 48.9°F9.4°C 61% 4.9 mph SW7.9 kmh SW 12.1 mph19.5 kmh 30.02 in1016.6 mb 0.00 in0.0 mm 0.00 in0.0 mm 0.00 in0.0 mm
03:53 PM 62.2°F16.8°C 49.1°F9.5°C 62% 6.9 mph WSW11.1 kmh WSW 11.0 mph17.7 kmh 30.02 in1016.6 mb 0.00 in0.0 mm 0.00 in0.0 mm 0.00 in0.0 mm
04:03 PM 62.2°F16.8°C 49.1°F9.5°C 62% 4.9 mph WNW7.9 kmh WNW 12.1 mph19.5 kmh 30.02 in1016.6 mb 0.00 in0.0 mm 0.00 in0.0 mm 0.00 in0.0 mm
04:13 PM 61.9°F16.6°C 49.6°F9.8°C 64% 6.0 mph SW9.7 kmh SW 11.0 mph17.7 kmh 30.02 in1016.6 mb 0.00 in0.0 mm 0.00 in0.0 mm 0.00 in0.0 mm
04:23 PM 61.5°F16.4°C 49.6°F9.8°C 65% 6.0 mph W9.7 kmh W 10.1 mph16.3 kmh 30.02 in1016.6 mb 0.00 in0.0 mm 0.00 in0.0 mm 0.00 in0.0 mm
04:33 PM 61.9°F16.6°C 50.0°F10.0°C 65% 4.0 mph WSW6.4 kmh WSW 8.9 mph14.3 kmh 30.01 in1016.3 mb 0.00 in0.0 mm 0.00 in0.0 mm 0.00 in0.0 mm
04:43 PM 61.9°F16.6°C 50.0°F10.0°C 65% 4.0 mph SW6.4 kmh SW 11.0 mph17.7 kmh 30.01 in1016.3 mb 0.00 in0.0 mm 0.00 in0.0 mm 0.00 in0.0 mm
04:53 PM 62.4°F16.9°C 49.6°F9.8°C 63% 4.0 mph SW6.4 kmh SW 11.0 mph17.7 kmh 30.01 in1016.3 mb 0.00 in0.0 mm 0.00 in0.0 mm 0.00 in0.0 mm
05:03 PM 61.5°F16.4°C 50.0°F10.0°C 66% 4.9 mph SW7.9 kmh SW 11.0 mph17.7 kmh 30.01 in1016.3 mb 0.00 in0.0 mm 0.00 in0.0 mm 0.00 in0.0 mm
05:13 PM 61.3°F16.3°C 49.8°F9.9°C 66% 4.9 mph NW7.9 kmh NW 8.9 mph14.3 kmh 30.01 in1016.3 mb 0.00 in0.0 mm 0.00 in0.0 mm 0.00 in0.0 mm
05:23 PM 61.0°F16.1°C 50.0°F10.0°C 67% 4.9 mph WSW7.9 kmh WSW 13.0 mph20.9 kmh 30.01 in1016.3 mb 0.00 in0.0 mm 0.00 in0.0 mm 0.00 in0.0 mm
05:33 PM 59.7°F15.4°C 49.5°F9.7°C 69% 4.9 mph SW7.9 kmh SW 10.1 mph16.3 kmh 30.01 in1016.3 mb 0.00 in0.0 mm 0.00 in0.0 mm 0.00 in0.0 mm
05:43 PM 59.7°F15.4°C 50.0°F10.0°C 70% 4.0 mph W6.4 kmh W 10.1 mph16.3 kmh 30.01 in1016.3 mb 0.00 in0.0 mm 0.00 in0.0 mm 0.00 in0.0 mm
05:53 PM 59.4°F15.2°C 50.0°F10.0°C 71% 4.9 mph WSW7.9 kmh WSW 12.1 mph19.5 kmh 30.01 in1016.3 mb 0.00 in0.0 mm 0.00 in0.0 mm 0.00 in0.0 mm
06:03 PM 59.2°F15.1°C 49.8°F9.9°C 71% 2.9 mph SW4.7 kmh SW 8.1 mph13.0 kmh 30.02 in1016.6 mb 0.00 in0.0 mm 0.00 in0.0 mm 0.00 in0.0 mm
06:13 PM 59.0°F15.0°C 50.4°F10.2°C 73% 2.9 mph WSW4.7 kmh WSW 8.1 mph13.0 kmh 30.02 in1016.6 mb 0.00 in0.0 mm 0.00 in0.0 mm 0.00 in0.0 mm
06:23 PM 58.5°F14.7°C 50.2°F10.1°C 74% 4.0 mph NW6.4 kmh NW 8.1 mph13.0 kmh 30.02 in1016.6 mb 0.00 in0.0 mm 0.00 in0.0 mm 0.00 in0.0 mm
06:33 PM 58.5°F14.7°C 50.5°F10.3°C 75% 4.0 mph WSW6.4 kmh WSW 6.9 mph11.1 kmh 30.02 in1016.6 mb 0.00 in0.0 mm 0.00 in0.0 mm 0.00 in0.0 mm
06:43 PM 57.9°F14.4°C 50.7°F10.4°C 77% 2.9 mph WSW4.7 kmh WSW 6.0 mph9.7 kmh 30.02 in1016.6 mb 0.00 in0.0 mm 0.00 in0.0 mm 0.00 in0.0 mm
06:53 PM 57.9°F14.4°C 50.7°F10.4°C 77% 2.0 mph W3.2 kmh W 6.0 mph9.7 kmh 30.02 in1016.6 mb 0.00 in0.0 mm 0.00 in0.0 mm 0.00 in0.0 mm
07:03 PM 57.9°F14.4°C 50.7°F10.4°C 77% 0.9 mph W1.4 kmh W 4.0 mph6.4 kmh 30.01 in1016.3 mb 0.00 in0.0 mm 0.00 in0.0 mm 0.00 in0.0 mm
07:13 PM 57.7°F14.3°C 50.9°F10.5°C 78% 0.9 mph SSE1.4 kmh SSE 4.0 mph6.4 kmh 30.01 in1016.3 mb 0.00 in0.0 mm 0.00 in0.0 mm 0.00 in0.0 mm
07:23 PM 57.7°F14.3°C 50.9°F10.5°C 78% Calm Calm 2.9 mph4.7 kmh 30.01 in1016.3 mb 0.00 in0.0 mm 0.00 in0.0 mm 0.00 in0.0 mm
07:33 PM 57.7°F14.3°C 50.9°F10.5°C 78% 0.9 mph SSW1.4 kmh SSW 2.0 mph3.2 kmh 30.01 in1016.3 mb 0.00 in0.0 mm 0.00 in0.0 mm 0.00 in0.0 mm
07:43 PM 57.7°F14.3°C 50.9°F10.5°C 78% 0.9 mph SW1.4 kmh SW 2.0 mph3.2 kmh 30.01 in1016.3 mb 0.00 in0.0 mm 0.00 in0.0 mm 0.00 in0.0 mm
07:53 PM 57.6°F14.2°C 50.7°F10.4°C 78% Calm Calm 2.0 mph3.2 kmh 30.02 in1016.6 mb 0.00 in0.0 mm 0.00 in0.0 mm 0.00 in0.0 mm
08:03 PM 57.6°F14.2°C 51.1°F10.6°C 79% 0.9 mph SW1.4 kmh SW 2.9 mph4.7 kmh 30.02 in1016.6 mb 0.00 in0.0 mm 0.00 in0.0 mm 0.00 in0.0 mm
08:13 PM 57.4°F14.1°C 50.9°F10.5°C 79% 0.9 mph SW1.4 kmh SW 2.9 mph4.7 kmh 30.02 in1016.6 mb 0.00 in0.0 mm 0.00 in0.0 mm 0.00 in0.0 mm
08:23 PM 57.2°F14.0°C 51.1°F10.6°C 80% 0.9 mph SW1.4 kmh SW 2.9 mph4.7 kmh 30.02 in1016.6 mb 0.00 in0.0 mm 0.00 in0.0 mm 0.00 in0.0 mm
08:33 PM 57.0°F13.9°C 51.3°F10.7°C 81% 0.9 mph S1.4 kmh S 2.9 mph4.7 kmh 30.02 in1016.6 mb 0.00 in0.0 mm 0.00 in0.0 mm 0.00 in0.0 mm
08:43 PM 57.0°F13.9°C 51.3°F10.7°C 81% 0.9 mph SW1.4 kmh SW 2.9 mph4.7 kmh 30.02 in1016.6 mb 0.00 in0.0 mm 0.00 in0.0 mm 0.00 in0.0 mm
08:53 PM 57.0°F13.9°C 51.6°F10.9°C 82% 0.9 mph SE1.4 kmh SE 4.9 mph7.9 kmh 30.02 in1016.6 mb 0.00 in0.0 mm 0.00 in0.0 mm 0.00 in0.0 mm
09:03 PM 57.2°F14.0°C 51.4°F10.8°C 81% 2.0 mph SSE3.2 kmh SSE 4.9 mph7.9 kmh 30.01 in1016.3 mb 0.00 in0.0 mm 0.00 in0.0 mm 0.00 in0.0 mm
09:13 PM 57.4°F14.1°C 51.6°F10.9°C 81% 0.9 mph SE1.4 kmh SE 4.0 mph6.4 kmh 30.01 in1016.3 mb 0.00 in0.0 mm 0.00 in0.0 mm 0.00 in0.0 mm
09:23 PM 57.4°F14.1°C 51.6°F10.9°C 81% 0.9 mph SE1.4 kmh SE 4.9 mph7.9 kmh 30.01 in1016.3 mb 0.00 in0.0 mm 0.00 in0.0 mm 0.00 in0.0 mm
09:33 PM 57.2°F14.0°C 51.4°F10.8°C 81% 2.0 mph SE3.2 kmh SE 6.0 mph9.7 kmh 30.02 in1016.6 mb 0.00 in0.0 mm 0.00 in0.0 mm 0.00 in0.0 mm
09:43 PM 57.2°F14.0°C 51.4°F10.8°C 81% 2.0 mph SSW3.2 kmh SSW 4.0 mph6.4 kmh 30.02 in1016.6 mb 0.00 in0.0 mm 0.00 in0.0 mm 0.00 in0.0 mm
09:53 PM 57.2°F14.0°C 51.8°F11.0°C 82% 0.9 mph SW1.4 kmh SW 4.0 mph6.4 kmh 30.02 in1016.6 mb 0.00 in0.0 mm 0.00 in0.0 mm 0.00 in0.0 mm
10:03 PM 57.2°F14.0°C 51.8°F11.0°C 82% 0.9 mph SSE1.4 kmh SSE 4.9 mph7.9 kmh 30.02 in1016.6 mb 0.00 in0.0 mm 0.00 in0.0 mm 0.00 in0.0 mm
10:13 PM 57.0°F13.9°C 51.6°F10.9°C 82% 2.0 mph S3.2 kmh S 4.9 mph7.9 kmh 30.01 in1016.3 mb 0.00 in0.0 mm 0.00 in0.0 mm 0.00 in0.0 mm
10:23 PM 57.0°F13.9°C 51.3°F10.7°C 81% 2.0 mph SE3.2 kmh SE 5.0 mph8.0 kmh 30.01 in1016.3 mb 0.00 in0.0 mm 0.00 in0.0 mm 0.00 in0.0 mm
10:33 PM 57.0°F13.9°C 51.3°F10.7°C 81% 2.0 mph SE3.2 kmh SE 7.0 mph11.3 kmh 30.01 in1016.3 mb 0.00 in0.0 mm 0.00 in0.0 mm 0.00 in0.0 mm
10:43 PM 56.8°F13.8°C 51.4°F10.8°C 82% 2.9 mph SE4.7 kmh SE 4.9 mph7.9 kmh 30.01 in1016.3 mb 0.00 in0.0 mm 0.00 in0.0 mm 0.00 in0.0 mm
10:53 PM 56.8°F13.8°C 51.8°F11.0°C 83% 2.9 mph SE4.7 kmh SE 6.9 mph11.1 kmh 30.01 in1016.3 mb 0.00 in0.0 mm 0.00 in0.0 mm 0.00 in0.0 mm
11:03 PM 56.7°F13.7°C 51.8°F11.0°C 84% 0.9 mph SSE1.4 kmh SSE 6.0 mph9.7 kmh 30.01 in1016.3 mb 0.00 in0.0 mm 0.00 in0.0 mm 0.00 in0.0 mm
11:13 PM 55.9°F13.3°C 51.8°F11.0°C 86% 2.0 mph SW3.2 kmh SW 4.9 mph7.9 kmh 30.01 in1016.3 mb 0.00 in0.0 mm 0.00 in0.0 mm 0.00 in0.0 mm
11:24 PM 55.6°F13.1°C 52.2°F11.2°C 88% Calm Calm 2.0 mph3.2 kmh 30.01 in1016.3 mb 0.01 in0.3 mm 0.05 in1.3 mm 0.01 in0.3 mm
11:34 PM 55.2°F12.9°C 52.0°F11.1°C 89% 0.9 mph S1.4 kmh S 6.0 mph9.7 kmh 30.01 in1016.3 mb 0.02 in0.5 mm 0.06 in1.5 mm 0.02 in0.5 mm
11:44 PM 54.9°F12.7°C 52.0°F11.1°C 90% 2.0 mph SE3.2 kmh SE 4.9 mph7.9 kmh 30.01 in1016.3 mb 0.04 in1.0 mm 0.12 in3.0 mm 0.04 in1.0 mm
11:54 PM 54.7°F12.6°C 52.2°F11.2°C 91% Calm Calm 2.0 mph3.2 kmh 30.02 in1016.6 mb 0.04 in1.0 mm 0.00 in0.0 mm 0.04 in1.0 mm